sensor_id;sensor_type;location;lat;lon;timestamp;pressure;altitude;pressure_sealevel;temperature;humidity
85157;BME280;75524;50.698;7.196;2024-01-06T13:12:21;100014.31;;;20.16;53.22
85157;BME280;75524;50.698;7.196;2024-01-06T13:14:46;100014.84;;;20.18;53.48
85157;BME280;75524;50.698;7.196;2024-01-06T13:17:12;100022.47;;;20.21;53.18
85157;BME280;75524;50.698;7.196;2024-01-06T13:19:39;100019.69;;;20.27;53.14
85157;BME280;75524;50.698;7.196;2024-01-06T13:22:04;100025.41;;;20.30;52.87
85157;BME280;75524;50.698;7.196;2024-01-06T13:24:29;100020.97;;;20.34;52.66
85157;BME280;75524;50.698;7.196;2024-01-06T13:26:54;100025.59;;;20.39;52.56
85157;BME280;75524;50.698;7.196;2024-01-06T13:29:19;100025.31;;;20.40;52.30
85157;BME280;75524;50.698;7.196;2024-01-06T13:31:45;100034.28;;;20.46;52.28
85157;BME280;75524;50.698;7.196;2024-01-06T13:41:11;100041.41;;;20.96;50.81
85157;BME280;75524;50.698;7.196;2024-01-06T13:43:36;100045.81;;;16.25;39.73
85157;BME280;75524;50.698;7.196;2024-01-06T13:46:02;100046.53;;;12.91;47.80
85157;BME280;75524;50.698;7.196;2024-01-06T13:48:27;100049.38;;;9.30;57.53
85157;BME280;75524;50.698;7.196;2024-01-06T13:53:16;100048.56;;;6.19;73.46
85157;BME280;75524;50.698;7.196;2024-01-06T13:55:44;100052.13;;;5.33;79.63
85157;BME280;75524;50.698;7.196;2024-01-06T13:58:10;100053.03;;;4.82;84.67
85157;BME280;75524;50.698;7.196;2024-01-06T14:00:37;100053.59;;;4.48;89.79
85157;BME280;75524;50.698;7.196;2024-01-06T14:03:05;100061.09;;;4.22;91.06
85157;BME280;75524;50.698;7.196;2024-01-06T14:05:33;100065.00;;;3.97;97.38
85157;BME280;75524;50.698;7.196;2024-01-06T14:08:01;100068.09;;;3.85;97.93
85157;BME280;75524;50.698;7.196;2024-01-06T14:10:27;100063.00;;;3.75;96.94
85157;BME280;75524;50.698;7.196;2024-01-06T14:12:54;100069.44;;;3.66;100.00
85157;BME280;75524;50.698;7.196;2024-01-06T14:15:21;100068.00;;;3.55;100.00
85157;BME280;75524;50.698;7.196;2024-01-06T14:17:48;100077.44;;;3.43;100.00
85157;BME280;75524;50.698;7.196;2024-01-06T14:20:17;100069.69;;;3.33;100.00
85157;BME280;75524;50.698;7.196;2024-01-06T14:25:15;100079.56;;;3.24;100.00
85157;BME280;75524;50.698;7.196;2024-01-06T14:27:46;100090.59;;;3.21;100.00
85157;BME280;75524;50.698;7.196;2024-01-06T14:30:12;100092.13;;;3.16;100.00
85157;BME280;75524;50.698;7.196;2024-01-06T14:32:39;100090.81;;;3.11;100.00
85157;BME280;75524;50.698;7.196;2024-01-06T14:35:06;100086.66;;;3.09;100.00
85157;BME280;75524;50.698;7.196;2024-01-06T14:37:33;100094.38;;;3.04;100.00
85157;BME280;75524;50.698;7.196;2024-01-06T14:39:59;100097.53;;;2.99;100.00
85157;BME280;75524;50.698;7.196;2024-01-06T14:42:31;100104.25;;;2.95;100.00
85157;BME280;75524;50.698;7.196;2024-01-06T14:44:59;100103.75;;;2.91;100.00
85157;BME280;75524;50.698;7.196;2024-01-06T14:47:25;100115.78;;;2.87;100.00
85157;BME280;75524;50.698;7.196;2024-01-06T14:49:52;100112.63;;;2.84;100.00
85157;BME280;75524;50.698;7.196;2024-01-06T14:52:20;100118.97;;;2.83;100.00
85157;BME280;75524;50.698;7.196;2024-01-06T14:54:46;100119.66;;;2.76;100.00
85157;BME280;75524;50.698;7.196;2024-01-06T14:57:15;100119.00;;;2.74;100.00
85157;BME280;75524;50.698;7.196;2024-01-06T14:59:41;100120.69;;;2.67;100.00
85157;BME280;75524;50.698;7.196;2024-01-06T15:02:09;100121.03;;;2.64;100.00
85157;BME280;75524;50.698;7.196;2024-01-06T15:04:39;100126.72;;;2.61;100.00
85157;BME280;75524;50.698;7.196;2024-01-06T15:07:05;100131.72;;;2.56;100.00
85157;BME280;75524;50.698;7.196;2024-01-06T15:09:32;100133.06;;;2.52;100.00
85157;BME280;75524;50.698;7.196;2024-01-06T15:11:58;100133.22;;;2.50;100.00
85157;BME280;75524;50.698;7.196;2024-01-06T15:14:25;100133.75;;;2.45;100.00
85157;BME280;75524;50.698;7.196;2024-01-06T15:16:51;100140.09;;;2.44;100.00
85157;BME280;75524;50.698;7.196;2024-01-06T15:19:18;100148.72;;;2.46;100.00
85157;BME280;75524;50.698;7.196;2024-01-06T15:21:44;100155.09;;;2.45;100.00
85157;BME280;75524;50.698;7.196;2024-01-06T15:24:14;100159.91;;;2.42;100.00
85157;BME280;75524;50.698;7.196;2024-01-06T15:26:42;100154.25;;;2.37;100.00
85157;BME280;75524;50.698;7.196;2024-01-06T15:29:09;100152.59;;;2.36;100.00
85157;BME280;75524;50.698;7.196;2024-01-06T15:31:35;100159.44;;;2.30;100.00
85157;BME280;75524;50.698;7.196;2024-01-06T15:34:02;100164.09;;;2.28;100.00
85157;BME280;75524;50.698;7.196;2024-01-06T15:36:29;100157.44;;;2.24;100.00
85157;BME280;75524;50.698;7.196;2024-01-06T15:38:55;100169.09;;;2.23;100.00
85157;BME280;75524;50.698;7.196;2024-01-06T15:41:21;100171.09;;;2.21;100.00
85157;BME280;75524;50.698;7.196;2024-01-06T15:43:48;100171.28;;;2.11;100.00
85157;BME280;75524;50.698;7.196;2024-01-06T15:46:14;100171.59;;;2.08;100.00
85157;BME280;75524;50.698;7.196;2024-01-06T15:48:42;100178.75;;;2.07;100.00
85157;BME280;75524;50.698;7.196;2024-01-06T15:51:09;100182.41;;;2.06;100.00
85157;BME280;75524;50.698;7.196;2024-01-06T15:53:35;100184.78;;;2.09;100.00
85157;BME280;75524;50.698;7.196;2024-01-06T15:56:02;100184.25;;;2.06;100.00
85157;BME280;75524;50.698;7.196;2024-01-06T15:58:30;100186.25;;;2.04;100.00
85157;BME280;75524;50.698;7.196;2024-01-06T16:00:58;100186.59;;;2.01;100.00
85157;BME280;75524;50.698;7.196;2024-01-06T16:03:25;100194.59;;;2.01;100.00
85157;BME280;75524;50.698;7.196;2024-01-06T16:05:51;100194.75;;;1.99;100.00
85157;BME280;75524;50.698;7.196;2024-01-06T16:08:19;100202.25;;;1.95;100.00
85157;BME280;75524;50.698;7.196;2024-01-06T16:10:45;100200.75;;;1.93;100.00
85157;BME280;75524;50.698;7.196;2024-01-06T16:13:12;100198.38;;;1.90;100.00
85157;BME280;75524;50.698;7.196;2024-01-06T16:15:39;100202.22;;;1.87;100.00
85157;BME280;75524;50.698;7.196;2024-01-06T16:18:05;100201.22;;;1.88;100.00
85157;BME280;75524;50.698;7.196;2024-01-06T16:20:32;100205.22;;;1.84;100.00
85157;BME280;75524;50.698;7.196;2024-01-06T16:22:59;100202.38;;;1.86;100.00
85157;BME280;75524;50.698;7.196;2024-01-06T16:25:26;100216.22;;;1.89;100.00
85157;BME280;75524;50.698;7.196;2024-01-06T16:27:52;100211.38;;;1.85;100.00
85157;BME280;75524;50.698;7.196;2024-01-06T16:30:19;100226.69;;;1.83;100.00
85157;BME280;75524;50.698;7.196;2024-01-06T16:32:47;100221.84;;;1.78;100.00
85157;BME280;75524;50.698;7.196;2024-01-06T16:35:18;100225.19;;;1.80;100.00
85157;BME280;75524;50.698;7.196;2024-01-06T16:37:45;100220.50;;;1.82;100.00
85157;BME280;75524;50.698;7.196;2024-01-06T16:40:13;100222.53;;;1.80;100.00
85157;BME280;75524;50.698;7.196;2024-01-06T16:42:39;100226.19;;;1.79;100.00
85157;BME280;75524;50.698;7.196;2024-01-06T16:45:07;100223.84;;;1.76;100.00
85157;BME280;75524;50.698;7.196;2024-01-06T16:47:33;100220.50;;;1.74;100.00
85157;BME280;75524;50.698;7.196;2024-01-06T16:50:00;100235.16;;;1.70;100.00
85157;BME280;75524;50.698;7.196;2024-01-06T16:52:27;100228.50;;;1.66;100.00
85157;BME280;75524;50.698;7.196;2024-01-06T16:54:53;100230.00;;;1.68;100.00
85157;BME280;75524;50.698;7.196;2024-01-06T16:57:20;100231.16;;;1.66;100.00
85157;BME280;75524;50.698;7.196;2024-01-06T16:59:47;100231.47;;;1.62;100.00
85157;BME280;75524;50.698;7.196;2024-01-06T17:02:14;100231.63;;;1.61;100.00
85157;BME280;75524;50.698;7.196;2024-01-06T17:04:41;100244.94;;;1.61;100.00
85157;BME280;75524;50.698;7.196;2024-01-06T17:07:08;100249.63;;;1.59;100.00
85157;BME280;75524;50.698;7.196;2024-01-06T17:09:35;100249.56;;;1.51;100.00
85157;BME280;75524;50.698;7.196;2024-01-06T17:12:05;100239.78;;;1.51;100.00
85157;BME280;75524;50.698;7.196;2024-01-06T17:14:32;100243.09;;;1.53;100.00
85157;BME280;75524;50.698;7.196;2024-01-06T17:17:00;100251.94;;;1.54;100.00
85157;BME280;75524;50.698;7.196;2024-01-06T17:19:26;100247.41;;;1.54;100.00
85157;BME280;75524;50.698;7.196;2024-01-06T17:21:53;100258.41;;;1.51;100.00
85157;BME280;75524;50.698;7.196;2024-01-06T17:24:20;100258.41;;;1.51;100.00
85157;BME280;75524;50.698;7.196;2024-01-06T17:26:47;100256.06;;;1.48;100.00
85157;BME280;75524;50.698;7.196;2024-01-06T17:29:14;100255.69;;;1.43;100.00
85157;BME280;75524;50.698;7.196;2024-01-06T17:31:41;100260.84;;;1.44;100.00
85157;BME280;75524;50.698;7.196;2024-01-06T17:34:08;100270.16;;;1.40;100.00
85157;BME280;75524;50.698;7.196;2024-01-06T17:36:37;100275.63;;;1.30;100.00
85157;BME280;75524;50.698;7.196;2024-01-06T17:39:04;100276.91;;;1.26;100.00
85157;BME280;75524;50.698;7.196;2024-01-06T17:41:31;100274.75;;;1.22;100.00
85157;BME280;75524;50.698;7.196;2024-01-06T17:44:08;100278.22;;;1.22;100.00
85157;BME280;75524;50.698;7.196;2024-01-06T17:46:36;100283.53;;;1.22;100.00
85157;BME280;75524;50.698;7.196;2024-01-06T17:49:02;100287.34;;;1.20;100.00
85157;BME280;75524;50.698;7.196;2024-01-06T17:51:31;100289.38;;;1.18;100.00
85157;BME280;75524;50.698;7.196;2024-01-06T17:54:00;100290.34;;;1.17;100.00
85157;BME280;75524;50.698;7.196;2024-01-06T17:56:28;100295.66;;;1.17;100.00
85157;BME280;75524;50.698;7.196;2024-01-06T17:58:54;100298.34;;;1.17;100.00
85157;BME280;75524;50.698;7.196;2024-01-06T18:01:27;100300.00;;;1.18;100.00
85157;BME280;75524;50.698;7.196;2024-01-06T18:03:55;100300.13;;;1.16;100.00
85157;BME280;75524;50.698;7.196;2024-01-06T18:06:23;100294.97;;;1.14;100.00
85157;BME280;75524;50.698;7.196;2024-01-06T18:08:50;100301.97;;;1.15;100.00
85157;BME280;75524;50.698;7.196;2024-01-06T18:11:17;100297.34;;;1.18;100.00
85157;BME280;75524;50.698;7.196;2024-01-06T18:13:44;100299.00;;;1.19;100.00
85157;BME280;75524;50.698;7.196;2024-01-06T18:16:14;100309.63;;;1.19;100.00
85157;BME280;75524;50.698;7.196;2024-01-06T18:18:40;100306.16;;;1.18;100.00
85157;BME280;75524;50.698;7.196;2024-01-06T18:21:07;100315.97;;;1.18;100.00
85157;BME280;75524;50.698;7.196;2024-01-06T18:23:35;100319.09;;;1.13;100.00
85157;BME280;75524;50.698;7.196;2024-01-06T18:26:02;100312.63;;;1.15;100.00
85157;BME280;75524;50.698;7.196;2024-01-06T18:28:29;100322.56;;;1.13;100.00
85157;BME280;75524;50.698;7.196;2024-01-06T18:30:56;100327.41;;;1.10;100.00
85157;BME280;75524;50.698;7.196;2024-01-06T18:33:23;100329.91;;;1.11;100.00
85157;BME280;75524;50.698;7.196;2024-01-06T18:35:52;100335.16;;;1.03;100.00
85157;BME280;75524;50.698;7.196;2024-01-06T18:38:18;100335.84;;;1.05;100.00
85157;BME280;75524;50.698;7.196;2024-01-06T18:40:44;100330.84;;;1.02;100.00
85157;BME280;75524;50.698;7.196;2024-01-06T18:43:11;100325.00;;;0.98;100.00
85157;BME280;75524;50.698;7.196;2024-01-06T18:45:37;100337.44;;;0.98;100.00
85157;BME280;75524;50.698;7.196;2024-01-06T18:48:04;100334.41;;;0.93;100.00
85157;BME280;75524;50.698;7.196;2024-01-06T18:50:31;100340.41;;;0.95;100.00
85157;BME280;75524;50.698;7.196;2024-01-06T18:52:57;100337.38;;;0.90;100.00
85157;BME280;75524;50.698;7.196;2024-01-06T18:55:24;100341.72;;;0.91;100.00
85157;BME280;75524;50.698;7.196;2024-01-06T18:57:51;100339.22;;;0.89;100.00
85157;BME280;75524;50.698;7.196;2024-01-06T19:00:18;100335.19;;;0.85;100.00
85157;BME280;75524;50.698;7.196;2024-01-06T19:02:46;100344.84;;;0.86;100.00
85157;BME280;75524;50.698;7.196;2024-01-06T19:05:14;100351.13;;;0.85;100.00
85157;BME280;75524;50.698;7.196;2024-01-06T19:07:43;100352.81;;;0.86;100.00
85157;BME280;75524;50.698;7.196;2024-01-06T19:10:10;100343.69;;;0.89;100.00
85157;BME280;75524;50.698;7.196;2024-01-06T19:12:37;100347.50;;;0.86;100.00
85157;BME280;75524;50.698;7.196;2024-01-06T19:15:04;100342.88;;;0.88;100.00
85157;BME280;75524;50.698;7.196;2024-01-06T19:17:31;100348.47;;;0.85;100.00
85157;BME280;75524;50.698;7.196;2024-01-06T19:19:57;100348.34;;;0.87;100.00
85157;BME280;75524;50.698;7.196;2024-01-06T19:22:24;100349.34;;;0.86;100.00
85157;BME280;75524;50.698;7.196;2024-01-06T19:24:50;100351.13;;;0.85;100.00
85157;BME280;75524;50.698;7.196;2024-01-06T19:27:18;100363.94;;;0.81;100.00
85157;BME280;75524;50.698;7.196;2024-01-06T19:29:45;100356.25;;;0.78;100.00
85157;BME280;75524;50.698;7.196;2024-01-06T19:32:12;100362.72;;;0.76;100.00
85157;BME280;75524;50.698;7.196;2024-01-06T19:34:39;100365.38;;;0.76;100.00
85157;BME280;75524;50.698;7.196;2024-01-06T19:37:08;100362.41;;;0.79;100.00
85157;BME280;75524;50.698;7.196;2024-01-06T19:39:34;100362.41;;;0.79;100.00
85157;BME280;75524;50.698;7.196;2024-01-06T19:42:01;100380.56;;;0.84;100.00
85157;BME280;75524;50.698;7.196;2024-01-06T19:44:27;100382.84;;;0.78;100.00
85157;BME280;75524;50.698;7.196;2024-01-06T19:46:53;100383.69;;;0.79;100.00
85157;BME280;75524;50.698;7.196;2024-01-06T19:49:22;100388.31;;;0.77;100.00
85157;BME280;75524;50.698;7.196;2024-01-06T19:51:49;100385.50;;;0.78;100.00
85157;BME280;75524;50.698;7.196;2024-01-06T19:54:16;100385.50;;;0.78;100.00
85157;BME280;75524;50.698;7.196;2024-01-06T19:56:43;100390.44;;;0.73;100.00
85157;BME280;75524;50.698;7.196;2024-01-06T19:59:10;100393.97;;;0.74;100.00
85157;BME280;75524;50.698;7.196;2024-01-06T20:01:38;100391.41;;;0.72;100.00
85157;BME280;75524;50.698;7.196;2024-01-06T20:04:04;100403.06;;;0.71;100.00
85157;BME280;75524;50.698;7.196;2024-01-06T20:06:31;100398.13;;;0.76;100.00
85157;BME280;75524;50.698;7.196;2024-01-06T20:08:58;100397.97;;;0.78;100.00
85157;BME280;75524;50.698;7.196;2024-01-06T20:11:24;100398.97;;;0.77;100.00
85157;BME280;75524;50.698;7.196;2024-01-06T20:13:51;100407.25;;;0.74;100.00
85157;BME280;75524;50.698;7.196;2024-01-06T20:16:18;100410.03;;;0.72;100.00
85157;BME280;75524;50.698;7.196;2024-01-06T20:18:44;100404.72;;;0.72;100.00
85157;BME280;75524;50.698;7.196;2024-01-06T20:21:11;100411.34;;;0.68;100.00
85157;BME280;75524;50.698;7.196;2024-01-06T20:23:39;100416.66;;;0.68;100.00
85157;BME280;75524;50.698;7.196;2024-01-06T20:26:08;100417.50;;;0.69;100.00
85157;BME280;75524;50.698;7.196;2024-01-06T20:28:34;100411.19;;;0.70;100.00
85157;BME280;75524;50.698;7.196;2024-01-06T20:31:01;100411.19;;;0.70;100.00
85157;BME280;75524;50.698;7.196;2024-01-06T20:33:28;100415.66;;;0.69;100.00
85157;BME280;75524;50.698;7.196;2024-01-06T20:36:00;100417.78;;;0.65;100.00
85157;BME280;75524;50.698;7.196;2024-01-06T20:38:27;100411.28;;;0.60;100.00
85157;BME280;75524;50.698;7.196;2024-01-06T20:40:54;100414.84;;;0.51;100.00
85157;BME280;75524;50.698;7.196;2024-01-06T20:43:20;100418.47;;;0.49;100.00
85157;BME280;75524;50.698;7.196;2024-01-06T20:45:47;100417.22;;;0.44;100.00
85157;BME280;75524;50.698;7.196;2024-01-06T20:48:15;100411.25;;;0.42;100.00
85157;BME280;75524;50.698;7.196;2024-01-06T20:50:42;100419.59;;;0.47;100.00
85157;BME280;75524;50.698;7.196;2024-01-06T20:53:08;100419.59;;;0.47;100.00
85157;BME280;75524;50.698;7.196;2024-01-06T20:55:35;100411.63;;;0.47;100.00
85157;BME280;75524;50.698;7.196;2024-01-06T20:58:02;100416.25;;;0.45;100.00
85157;BME280;75524;50.698;7.196;2024-01-06T21:00:29;100411.09;;;0.43;100.00
85157;BME280;75524;50.698;7.196;2024-01-06T21:02:59;100416.25;;;0.45;100.00
85157;BME280;75524;50.698;7.196;2024-01-06T21:05:28;100415.97;;;0.48;100.00
85157;BME280;75524;50.698;7.196;2024-01-06T21:07:54;100414.84;;;0.51;100.00
85157;BME280;75524;50.698;7.196;2024-01-06T21:10:21;100412.56;;;0.56;100.00
85157;BME280;75524;50.698;7.196;2024-01-06T21:12:48;100410.41;;;0.59;100.00
85157;BME280;75524;50.698;7.196;2024-01-06T21:15:14;100414.59;;;0.62;100.00
85157;BME280;75524;50.698;7.196;2024-01-06T21:17:41;100427.06;;;0.61;100.00
85157;BME280;75524;50.698;7.196;2024-01-06T21:20:10;100423.44;;;0.62;100.00
85157;BME280;75524;50.698;7.196;2024-01-06T21:22:36;100418.94;;;0.63;100.00
85157;BME280;75524;50.698;7.196;2024-01-06T21:25:03;100428.03;;;0.60;100.00
85157;BME280;75524;50.698;7.196;2024-01-06T21:27:32;100416.03;;;0.56;100.00
85157;BME280;75524;50.698;7.196;2024-01-06T21:30:00;100421.34;;;0.56;100.00
85157;BME280;75524;50.698;7.196;2024-01-06T21:32:32;100415.22;;;0.56;100.00
85157;BME280;75524;50.698;7.196;2024-01-06T21:34:59;100416.88;;;0.57;100.00
85157;BME280;75524;50.698;7.196;2024-01-06T21:37:26;100412.41;;;0.57;100.00
85157;BME280;75524;50.698;7.196;2024-01-06T21:39:54;100410.56;;;0.58;100.00
85157;BME280;75524;50.698;7.196;2024-01-06T21:42:21;100414.09;;;0.58;100.00
85157;BME280;75524;50.698;7.196;2024-01-06T21:44:48;100414.75;;;0.60;100.00
85157;BME280;75524;50.698;7.196;2024-01-06T21:47:14;100417.56;;;0.59;100.00
85157;BME280;75524;50.698;7.196;2024-01-06T21:49:41;100418.00;;;0.54;100.00
85157;BME280;75524;50.698;7.196;2024-01-06T21:52:07;100418.53;;;0.58;100.00
85157;BME280;75524;50.698;7.196;2024-01-06T21:54:36;100416.59;;;0.60;100.00
85157;BME280;75524;50.698;7.196;2024-01-06T21:57:02;100425.69;;;0.57;100.00
85157;BME280;75524;50.698;7.196;2024-01-06T21:59:30;100425.97;;;0.54;100.00
85157;BME280;75524;50.698;7.196;2024-01-06T22:01:56;100435.25;;;0.50;100.00
85157;BME280;75524;50.698;7.196;2024-01-06T22:04:23;100434.56;;;0.48;100.00
85157;BME280;75524;50.698;7.196;2024-01-06T22:06:49;100437.25;;;0.48;100.00
85157;BME280;75524;50.698;7.196;2024-01-06T22:09:16;100441.69;;;0.47;100.00
85157;BME280;75524;50.698;7.196;2024-01-06T22:11:43;100438.88;;;0.49;100.00
85157;BME280;75524;50.698;7.196;2024-01-06T22:14:10;100444.34;;;0.47;100.00
85157;BME280;75524;50.698;7.196;2024-01-06T22:16:36;100441.41;;;0.51;100.00
85157;BME280;75524;50.698;7.196;2024-01-06T22:19:03;100437.09;;;0.49;100.00
85157;BME280;75524;50.698;7.196;2024-01-06T22:21:30;100444.59;;;0.54;100.00
85157;BME280;75524;50.698;7.196;2024-01-06T22:23:57;100446.44;;;0.54;100.00
85157;BME280;75524;50.698;7.196;2024-01-06T22:26:25;100450.06;;;0.53;100.00
85157;BME280;75524;50.698;7.196;2024-01-06T22:29:03;100449.69;;;0.47;100.00
85157;BME280;75524;50.698;7.196;2024-01-06T22:33:21;100456.50;;;0.50;100.00
85157;BME280;75524;50.698;7.196;2024-01-06T22:35:48;100447.56;;;0.51;100.00
85157;BME280;75524;50.698;7.196;2024-01-06T22:38:15;100451.34;;;0.48;100.00
85157;BME280;75524;50.698;7.196;2024-01-06T22:40:42;100448.16;;;0.45;100.00
85157;BME280;75524;50.698;7.196;2024-01-06T22:43:09;100445.50;;;0.45;100.00
85157;BME280;75524;50.698;7.196;2024-01-06T22:46:48;100450.81;;;0.45;100.00
85157;BME280;75524;50.698;7.196;2024-01-06T22:49:14;100454.16;;;0.47;100.00
85157;BME280;75524;50.698;7.196;2024-01-06T22:51:41;100461.59;;;0.43;100.00
85157;BME280;75524;50.698;7.196;2024-01-06T22:54:26;100450.25;;;0.41;100.00
85157;BME280;75524;50.698;7.196;2024-01-06T22:57:12;100448.16;;;0.45;100.00
85157;BME280;75524;50.698;7.196;2024-01-06T22:59:57;100453.03;;;0.49;100.00
85157;BME280;75524;50.698;7.196;2024-01-06T23:02:43;100457.38;;;0.51;100.00
85157;BME280;75524;50.698;7.196;2024-01-06T23:05:53;100459.88;;;0.52;100.00
85157;BME280;75524;50.698;7.196;2024-01-06T23:08:20;100467.84;;;0.52;100.00
85157;BME280;75524;50.698;7.196;2024-01-06T23:10:47;100465.19;;;0.52;100.00
85157;BME280;75524;50.698;7.196;2024-01-06T23:13:15;100471.19;;;0.54;100.00
85157;BME280;75524;50.698;7.196;2024-01-06T23:15:42;100479.47;;;0.51;100.00
85157;BME280;75524;50.698;7.196;2024-01-06T23:18:08;100479.63;;;0.49;100.00
85157;BME280;75524;50.698;7.196;2024-01-06T23:20:35;100475.59;;;0.45;100.00
85157;BME280;75524;50.698;7.196;2024-01-06T23:23:01;100476.09;;;0.49;100.00
85157;BME280;75524;50.698;7.196;2024-01-06T23:25:28;100480.91;;;0.45;100.00
85157;BME280;75524;50.698;7.196;2024-01-06T23:27:54;100484.22;;;0.47;100.00
85157;BME280;75524;50.698;7.196;2024-01-06T23:30:21;100487.88;;;0.46;100.00
85157;BME280;75524;50.698;7.196;2024-01-06T23:32:48;100490.69;;;0.45;100.00
85157;BME280;75524;50.698;7.196;2024-01-06T23:35:15;100492.22;;;0.47;100.00
85157;BME280;75524;50.698;7.196;2024-01-06T23:37:42;100484.53;;;0.44;100.00
85157;BME280;75524;50.698;7.196;2024-01-06T23:40:09;100496.84;;;0.45;100.00
85157;BME280;75524;50.698;7.196;2024-01-06T23:42:36;100496.00;;;0.45;100.00
85157;BME280;75524;50.698;7.196;2024-01-06T23:45:03;100493.06;;;0.48;100.00
85157;BME280;75524;50.698;7.196;2024-01-06T23:47:29;100486.91;;;0.47;100.00
85157;BME280;75524;50.698;7.196;2024-01-06T23:49:56;100498.22;;;0.49;100.00
85157;BME280;75524;50.698;7.196;2024-01-06T23:52:23;100500.03;;;0.49;100.00
85157;BME280;75524;50.698;7.196;2024-01-06T23:54:49;100502.69;;;0.49;100.00
85157;BME280;75524;50.698;7.196;2024-01-06T23:57:16;100504.38;;;0.50;100.00
85157;BME280;75524;50.698;7.196;2024-01-06T23:59:42;100497.75;;;0.54;100.00
